createdAt,value
2023-03-04T00:00:39.208Z,1011.6
2023-03-04T00:01:42.079Z,1011.6
2023-03-04T00:03:01.024Z,1011.6
2023-03-04T00:04:05.178Z,1011.5
2023-03-04T00:05:08.870Z,1011.5
2023-03-04T00:06:12.493Z,1011.5
2023-03-04T00:07:15.667Z,1011.5
2023-03-04T00:08:19.442Z,1011.5
2023-03-04T00:09:22.669Z,1011.6
2023-03-04T00:10:24.598Z,1011.4
2023-03-04T00:11:27.683Z,1011.4
2023-03-04T00:12:31.107Z,1011.5
2023-03-04T00:13:33.893Z,1011.4
2023-03-04T00:14:37.297Z,1011.4
2023-03-04T00:15:40.960Z,1011.4
2023-03-04T00:16:44.219Z,1011.4
2023-03-04T00:17:48.800Z,1011.5
2023-03-04T00:18:52.307Z,1011.4
2023-03-04T00:19:56.205Z,1011.4
2023-03-04T00:20:59.671Z,1011.4
2023-03-04T00:22:02.939Z,1011.4
2023-03-04T00:23:06.271Z,1011.3
2023-03-04T00:24:09.520Z,1011.4
2023-03-04T00:25:15.073Z,1011.4
2023-03-04T00:26:18.588Z,1011.3
2023-03-04T00:27:21.866Z,1011.4
2023-03-04T00:28:24.971Z,1011.3
2023-03-04T00:29:28.661Z,1011.3
2023-03-04T00:30:31.521Z,1011.4
2023-03-04T00:31:35.111Z,1011.4
2023-03-04T00:32:38.395Z,1011.3
2023-03-04T00:33:57.216Z,1011.3
2023-03-04T00:35:01.812Z,1011.3
2023-03-04T00:36:05.514Z,1011.3
2023-03-04T00:37:23.848Z,1011.3
2023-03-04T00:38:26.724Z,1011.2
2023-03-04T00:39:30.073Z,1011.3
2023-03-04T00:40:32.675Z,1011.3
2023-03-04T00:41:36.591Z,1011.2
2023-03-04T00:42:39.761Z,1011.2
2023-03-04T00:43:44.033Z,1011.2
2023-03-04T00:44:47.366Z,1011.2
2023-03-04T00:45:50.336Z,1011.2
2023-03-04T00:46:53.845Z,1011.2
2023-03-04T00:47:57.079Z,1011.2
2023-03-04T00:48:59.854Z,1011.1
2023-03-04T00:50:04.348Z,1011.2
2023-03-04T00:51:07.977Z,1011.1
2023-03-04T00:52:11.614Z,1011.1
2023-03-04T00:53:14.964Z,1011.1
2023-03-04T00:54:17.746Z,1011.1
2023-03-04T00:55:20.832Z,1011.1
2023-03-04T00:56:24.275Z,1011
2023-03-04T00:57:26.983Z,1011
2023-03-04T00:58:29.986Z,1011
2023-03-04T00:59:32.707Z,1011
2023-03-04T01:00:35.180Z,1010.9
2023-03-04T01:01:38.572Z,1011
2023-03-04T01:02:42.250Z,1011
2023-03-04T01:03:45.651Z,1010.9
2023-03-04T01:04:49.388Z,1010.9
2023-03-04T01:05:53.522Z,1010.9
2023-03-04T01:06:56.933Z,1010.9
2023-03-04T01:07:59.650Z,1010.9
2023-03-04T01:09:02.244Z,1011
2023-03-04T01:10:05.910Z,1010.9
2023-03-04T01:11:08.359Z,1011
2023-03-04T01:12:11.085Z,1010.9
2023-03-04T01:13:14.175Z,1011
2023-03-04T01:14:17.463Z,1010.9
2023-03-04T01:15:20.590Z,1010.9
2023-03-04T01:16:23.729Z,1010.9
2023-03-04T01:17:26.552Z,1011
2023-03-04T01:18:29.337Z,1010.9
2023-03-04T01:19:33.079Z,1010.9
2023-03-04T01:20:36.551Z,1010.9
2023-03-04T01:21:40.366Z,1010.9
2023-03-04T01:22:43.108Z,1010.9
2023-03-04T01:23:46.019Z,1010.9
2023-03-04T01:24:49.206Z,1010.9
2023-03-04T01:25:52.167Z,1010.9
2023-03-04T01:26:55.900Z,1010.9
2023-03-04T01:27:58.632Z,1010.8
2023-03-04T01:29:01.358Z,1010.8
2023-03-04T01:30:03.821Z,1010.8
2023-03-04T01:31:07.322Z,1010.8
2023-03-04T01:32:10.242Z,1010.8
2023-03-04T01:33:13.626Z,1010.7
2023-03-04T01:34:16.620Z,1010.7
2023-03-04T01:35:20.492Z,1010.6
2023-03-04T01:36:23.724Z,1010.6
2023-03-04T01:37:27.894Z,1010.6
2023-03-04T01:38:31.676Z,1010.6
2023-03-04T01:39:35.715Z,1010.6
2023-03-04T01:40:39.128Z,1010.6
2023-03-04T01:41:42.862Z,1010.6
2023-03-04T01:42:46.000Z,1010.6
2023-03-04T01:43:49.112Z,1010.5
2023-03-04T01:44:52.311Z,1010.6
2023-03-04T01:45:55.577Z,1010.6
2023-03-04T01:46:59.014Z,1010.5
2023-03-04T01:48:02.477Z,1010.5
2023-03-04T01:49:05.652Z,1010.5
2023-03-04T01:50:09.732Z,1010.5
2023-03-04T01:51:13.364Z,1010.4
2023-03-04T01:52:16.440Z,1010.5
2023-03-04T01:53:20.328Z,1010.4
2023-03-04T01:54:23.694Z,1010.4
2023-03-04T01:55:26.547Z,1010.5
2023-03-04T01:56:29.534Z,1010.5
2023-03-04T01:57:33.002Z,1010.5
2023-03-04T01:58:35.469Z,1010.5
2023-03-04T01:59:39.112Z,1010.5
2023-03-04T02:00:42.281Z,1010.4
2023-03-04T02:01:45.732Z,1010.4
2023-03-04T02:02:48.973Z,1010.4
2023-03-04T02:03:52.288Z,1010.4
2023-03-04T02:04:54.943Z,1010.4
2023-03-04T02:05:58.101Z,1010.3
2023-03-04T02:07:01.110Z,1010.4
2023-03-04T02:08:04.881Z,1010.3
2023-03-04T02:09:09.001Z,1010.4
2023-03-04T02:10:13.159Z,1010.4
2023-03-04T02:11:16.894Z,1010.3
2023-03-04T02:12:20.328Z,1010.4
2023-03-04T02:13:23.134Z,1010.3
2023-03-04T02:14:26.912Z,1010.3
2023-03-04T02:15:30.734Z,1010.3
2023-03-04T02:16:33.912Z,1010.4
2023-03-04T02:17:37.043Z,1010.3
2023-03-04T02:18:40.371Z,1010.3
2023-03-04T02:19:43.538Z,1010.2
2023-03-04T02:20:46.950Z,1010.3
2023-03-04T02:21:50.343Z,1010.3
2023-03-04T02:22:53.842Z,1010.3
2023-03-04T02:23:56.306Z,1010.3
2023-03-04T02:25:00.524Z,1010.2
2023-03-04T02:26:04.233Z,1010.2
2023-03-04T02:27:07.214Z,1010.2
2023-03-04T02:28:10.316Z,1010.2
2023-03-04T02:29:13.122Z,1010.2
2023-03-04T02:30:15.948Z,1010.1
2023-03-04T02:31:18.367Z,1010.1
2023-03-04T02:32:22.124Z,1010.1
2023-03-04T02:33:25.751Z,1010.1
2023-03-04T02:34:28.839Z,1010
2023-03-04T02:35:32.020Z,1010.1
2023-03-04T02:36:35.991Z,1010.1
2023-03-04T02:37:39.092Z,1010.1
2023-03-04T02:38:42.234Z,1010.1
2023-03-04T02:39:44.991Z,1010.2
2023-03-04T02:40:48.889Z,1010.1
2023-03-04T02:41:52.305Z,1010.1
2023-03-04T02:42:56.112Z,1010.2
2023-03-04T02:43:59.505Z,1010.1
2023-03-04T02:45:03.591Z,1010.1
2023-03-04T02:46:06.829Z,1010.1
2023-03-04T02:47:09.889Z,1010
2023-03-04T02:48:13.033Z,1010
2023-03-04T02:49:16.677Z,1010
2023-03-04T02:50:19.461Z,1009.9
2023-03-04T02:51:22.839Z,1009.9
2023-03-04T02:52:26.185Z,1009.9
2023-03-04T02:53:29.259Z,1009.9
2023-03-04T02:54:32.605Z,1009.9
2023-03-04T02:55:35.966Z,1009.9
2023-03-04T02:56:40.093Z,1009.9
2023-03-04T02:57:43.521Z,1009.8
2023-03-04T02:58:46.569Z,1009.9
2023-03-04T02:59:49.965Z,1009.9
2023-03-04T03:00:53.119Z,1009.9
2023-03-04T03:01:56.231Z,1009.9
2023-03-04T03:03:00.617Z,1009.9
2023-03-04T03:04:04.195Z,1009.8
2023-03-04T03:05:07.085Z,1009.9
2023-03-04T03:06:10.241Z,1009.8
2023-03-04T03:07:13.325Z,1009.8
2023-03-04T03:08:16.409Z,1009.8
2023-03-04T03:09:19.394Z,1009.8
2023-03-04T03:10:22.509Z,1009.8
2023-03-04T03:11:27.244Z,1009.7
2023-03-04T03:12:31.373Z,1009.7
2023-03-04T03:13:34.144Z,1009.7
2023-03-04T03:14:37.285Z,1009.7
2023-03-04T03:15:40.361Z,1009.7
2023-03-04T03:16:43.384Z,1009.7
2023-03-04T03:17:46.392Z,1009.7
2023-03-04T03:18:49.344Z,1009.7
2023-03-04T03:19:53.085Z,1009.7
2023-03-04T03:20:55.662Z,1009.7
2023-03-04T03:21:58.391Z,1009.6
2023-03-04T03:23:01.112Z,1009.6
2023-03-04T03:24:05.144Z,1009.6
2023-03-04T03:25:07.891Z,1009.6
2023-03-04T03:26:11.240Z,1009.6
2023-03-04T03:27:14.862Z,1009.6
2023-03-04T03:28:18.969Z,1009.6
2023-03-04T03:29:22.334Z,1009.6
2023-03-04T03:30:25.695Z,1009.6
2023-03-04T03:31:28.793Z,1009.5
2023-03-04T03:32:32.549Z,1009.6
2023-03-04T03:33:36.357Z,1009.6
2023-03-04T03:34:39.718Z,1009.6
2023-03-04T03:35:43.172Z,1009.6
2023-03-04T03:36:46.601Z,1009.5
2023-03-04T03:37:49.712Z,1009.6
2023-03-04T03:38:52.698Z,1009.5
2023-03-04T03:39:55.739Z,1009.5
2023-03-04T03:40:58.626Z,1009.5
2023-03-04T03:42:01.762Z,1009.5
2023-03-04T03:43:05.162Z,1009.5
2023-03-04T03:44:09.116Z,1009.5
2023-03-04T03:45:12.148Z,1009.5
2023-03-04T03:46:15.369Z,1009.5
2023-03-04T03:47:18.694Z,1009.5
2023-03-04T03:48:21.894Z,1009.5
2023-03-04T03:49:24.898Z,1009.5
2023-03-04T03:50:27.892Z,1009.5
2023-03-04T03:51:30.898Z,1009.5
2023-03-04T03:52:33.321Z,1009.5
2023-03-04T03:53:36.766Z,1009.4
2023-03-04T03:54:39.767Z,1009.4
2023-03-04T03:55:42.795Z,1009.4
2023-03-04T03:56:46.813Z,1009.4
2023-03-04T03:57:49.671Z,1009.4
2023-03-04T03:58:52.919Z,1009.4
2023-03-04T03:59:56.815Z,1009.3
2023-03-04T04:01:00.290Z,1009.3
2023-03-04T04:02:04.009Z,1009.3
2023-03-04T04:03:08.413Z,1009.3
2023-03-04T04:04:12.271Z,1009.4
2023-03-04T04:05:14.765Z,1009.4
2023-03-04T04:06:17.858Z,1009.4
2023-03-04T04:07:20.960Z,1009.4
2023-03-04T04:08:23.478Z,1009.4
2023-03-04T04:09:27.206Z,1009.4
2023-03-04T04:10:30.005Z,1009.4
2023-03-04T04:11:33.024Z,1009.4
2023-03-04T04:12:36.050Z,1009.3
2023-03-04T04:13:39.653Z,1009.3
2023-03-04T04:14:42.381Z,1009.3
2023-03-04T04:15:46.014Z,1009.3
2023-03-04T04:16:49.251Z,1009.3
2023-03-04T04:17:53.211Z,1009.3
2023-03-04T04:18:56.587Z,1009.3
2023-03-04T04:19:59.648Z,1009.4
2023-03-04T04:21:03.486Z,1009.4
2023-03-04T04:22:05.718Z,1009.4
2023-03-04T04:23:08.477Z,1009.4
2023-03-04T04:24:11.825Z,1009.4
2023-03-04T04:25:15.445Z,1009.4
2023-03-04T04:26:18.274Z,1009.3
2023-03-04T04:27:21.082Z,1009.3
2023-03-04T04:28:24.381Z,1009.3
2023-03-04T04:29:27.229Z,1009.3
2023-03-04T04:30:30.322Z,1009.3
2023-03-04T04:31:34.463Z,1009.2
2023-03-04T04:32:37.942Z,1009.3
2023-03-04T04:33:41.341Z,1009.2
2023-03-04T04:34:44.403Z,1009.2
2023-03-04T04:35:47.876Z,1009.3
2023-03-04T04:36:51.210Z,1009.3
2023-03-04T04:37:54.043Z,1009.3
2023-03-04T04:38:57.238Z,1009.3
2023-03-04T04:40:00.319Z,1009.3
2023-03-04T04:41:03.972Z,1009.3
2023-03-04T04:42:06.695Z,1009.3
2023-03-04T04:43:09.430Z,1009.3
2023-03-04T04:44:11.937Z,1009.3
2023-03-04T04:45:15.374Z,1009.3
2023-03-04T04:46:18.688Z,1009.3
2023-03-04T04:47:23.158Z,1009.3
2023-03-04T04:48:26.633Z,1009.2
2023-03-04T04:49:29.417Z,1009.3
2023-03-04T04:50:33.639Z,1009.2
2023-03-04T04:51:36.816Z,1009.2
2023-03-04T04:52:39.898Z,1009.2
2023-03-04T04:53:43.237Z,1009.1
2023-03-04T04:54:46.590Z,1009.2
2023-03-04T04:55:49.051Z,1009.2
2023-03-04T04:56:52.502Z,1009.1
2023-03-04T04:57:55.582Z,1009.2
2023-03-04T04:58:58.678Z,1009.2
2023-03-04T05:00:02.442Z,1009.1
2023-03-04T05:01:05.480Z,1009.2
2023-03-04T05:02:08.890Z,1009.1
2023-03-04T05:03:12.545Z,1009.1
2023-03-04T05:04:16.180Z,1009.1
2023-03-04T05:05:19.361Z,1009.2
2023-03-04T05:06:22.059Z,1009.2
2023-03-04T05:07:25.272Z,1009.1
2023-03-04T05:08:28.632Z,1009.1
2023-03-04T05:09:31.706Z,1009.2
2023-03-04T05:10:34.802Z,1009.1
2023-03-04T05:11:37.237Z,1009.1
2023-03-04T05:12:40.603Z,1009.1
2023-03-04T05:13:43.506Z,1009.1
2023-03-04T05:14:46.588Z,1009.1
2023-03-04T05:15:49.654Z,1009.1
2023-03-04T05:16:52.296Z,1009.1
2023-03-04T05:17:55.685Z,1009.1
2023-03-04T05:18:59.290Z,1009.1
2023-03-04T05:20:02.640Z,1009.1
2023-03-04T05:21:05.792Z,1009.1
2023-03-04T05:22:08.593Z,1009.1
2023-03-04T05:23:11.982Z,1009.1
2023-03-04T05:24:14.064Z,1009.1
2023-03-04T05:25:17.418Z,1009.1
2023-03-04T05:26:20.346Z,1009.1
2023-03-04T05:27:23.993Z,1009.1
2023-03-04T05:28:26.788Z,1009
2023-03-04T05:29:29.531Z,1009.1
2023-03-04T05:30:32.336Z,1009.1
2023-03-04T05:31:35.785Z,1009
2023-03-04T05:32:38.659Z,1009.1
2023-03-04T05:33:41.850Z,1009
2023-03-04T05:34:45.730Z,1009
2023-03-04T05:35:48.709Z,1009
2023-03-04T05:36:51.776Z,1009
2023-03-04T05:37:54.864Z,1009.1
2023-03-04T05:38:57.643Z,1009
2023-03-04T05:40:01.305Z,1009
2023-03-04T05:41:03.907Z,1009.1
2023-03-04T05:42:07.265Z,1009.2
2023-03-04T05:43:09.776Z,1009
2023-03-04T05:44:12.765Z,1009.1
2023-03-04T05:45:16.456Z,1009.1
2023-03-04T05:46:20.302Z,1009
2023-03-04T05:47:24.224Z,1009.1
2023-03-04T05:48:26.949Z,1009.1
2023-03-04T05:49:30.414Z,1009.1
2023-03-04T05:50:34.620Z,1009.1
2023-03-04T05:51:37.708Z,1009.1
2023-03-04T05:52:40.774Z,1009.1
2023-03-04T05:53:43.585Z,1009.1
2023-03-04T05:54:46.129Z,1009.1
2023-03-04T05:55:48.920Z,1009.1
2023-03-04T05:56:52.305Z,1009.1
2023-03-04T05:57:55.008Z,1009.1
2023-03-04T05:58:58.051Z,1009.1
2023-03-04T06:00:01.123Z,1009.1
2023-03-04T06:01:04.345Z,1009.1
2023-03-04T06:02:06.840Z,1009.1
2023-03-04T06:03:10.842Z,1009.1
2023-03-04T06:04:13.800Z,1009.1
2023-03-04T06:05:17.683Z,1009.2
2023-03-04T06:06:21.577Z,1009.1
2023-03-04T06:07:24.891Z,1009.1
2023-03-04T06:08:28.069Z,1009.1
2023-03-04T06:09:31.184Z,1009.1
2023-03-04T06:10:34.911Z,1009.2
2023-03-04T06:11:37.430Z,1009.1
2023-03-04T06:12:40.506Z,1009.2
2023-03-04T06:13:43.313Z,1009.2
2023-03-04T06:14:46.148Z,1009.2
2023-03-04T06:15:49.949Z,1009.2
2023-03-04T06:16:53.162Z,1009.2
2023-03-04T06:17:56.806Z,1009.2
2023-03-04T06:18:59.753Z,1009.2
2023-03-04T06:20:02.783Z,1009.3
2023-03-04T06:21:06.333Z,1009.2
2023-03-04T06:22:10.197Z,1009.2
2023-03-04T06:23:13.400Z,1009.3
2023-03-04T06:24:16.378Z,1009.2
2023-03-04T06:25:19.723Z,1009.3
2023-03-04T06:26:22.511Z,1009.3
2023-03-04T06:27:25.626Z,1009.3
2023-03-04T06:28:28.077Z,1009.3
2023-03-04T06:29:31.115Z,1009.3
2023-03-04T06:30:34.550Z,1009.3
2023-03-04T06:31:37.968Z,1009.3
2023-03-04T06:32:41.365Z,1009.3
2023-03-04T06:33:44.441Z,1009.3
2023-03-04T06:34:47.513Z,1009.3
2023-03-04T06:35:50.139Z,1009.4
2023-03-04T06:36:53.203Z,1009.4
2023-03-04T06:37:57.351Z,1009.4
2023-03-04T06:39:00.725Z,1009.4
2023-03-04T06:40:03.447Z,1009.4
2023-03-04T06:41:05.977Z,1009.4
2023-03-04T06:42:08.203Z,1009.4
2023-03-04T06:43:11.113Z,1009.3
2023-03-04T06:44:13.538Z,1009.4
2023-03-04T06:45:16.413Z,1009.4
2023-03-04T06:46:20.156Z,1009.4
2023-03-04T06:47:23.825Z,1009.4
2023-03-04T06:48:27.249Z,1009.4
2023-03-04T06:49:30.711Z,1009.4
2023-03-04T06:50:34.200Z,1009.4
2023-03-04T06:51:38.238Z,1009.4
2023-03-04T06:52:40.864Z,1009.4
2023-03-04T06:53:44.995Z,1009.4
2023-03-04T06:54:48.321Z,1009.5
2023-03-04T06:55:51.474Z,1009.5
2023-03-04T06:56:54.266Z,1009.5
2023-03-04T06:57:56.781Z,1009.5
2023-03-04T06:59:00.421Z,1009.5
2023-03-04T07:00:04.238Z,1009.5
2023-03-04T07:01:07.702Z,1009.4
2023-03-04T07:02:11.787Z,1009.5
2023-03-04T07:03:14.709Z,1009.5
2023-03-04T07:04:18.239Z,1009.5
2023-03-04T07:05:21.297Z,1009.5
2023-03-04T07:06:24.989Z,1009.5
2023-03-04T07:07:27.687Z,1009.5
2023-03-04T07:08:30.214Z,1009.5
2023-03-04T07:09:34.100Z,1009.5
2023-03-04T07:10:37.480Z,1009.5
2023-03-04T07:11:40.625Z,1009.5
2023-03-04T07:12:43.065Z,1009.6
2023-03-04T07:13:46.350Z,1009.7
2023-03-04T07:14:49.559Z,1009.6
2023-03-04T07:15:53.313Z,1009.6
2023-03-04T07:16:56.639Z,1009.6
2023-03-04T07:17:59.441Z,1009.6
2023-03-04T07:19:02.462Z,1009.6
2023-03-04T07:20:05.523Z,1009.6
2023-03-04T07:21:08.897Z,1009.5
2023-03-04T07:22:11.696Z,1009.6
2023-03-04T07:23:14.693Z,1009.6
2023-03-04T07:24:17.977Z,1009.6
2023-03-04T07:25:21.309Z,1009.6
2023-03-04T07:26:24.402Z,1009.6
2023-03-04T07:27:27.389Z,1009.7
2023-03-04T07:28:31.045Z,1009.7
2023-03-04T07:29:33.642Z,1009.7
2023-03-04T07:30:36.731Z,1009.7
2023-03-04T07:31:40.210Z,1009.7
2023-03-04T07:32:44.358Z,1009.7
2023-03-04T07:33:47.922Z,1009.7
2023-03-04T07:34:50.499Z,1009.7
2023-03-04T07:35:53.668Z,1009.6
2023-03-04T07:36:56.069Z,1009.7
2023-03-04T07:37:59.437Z,1009.7
2023-03-04T07:39:02.811Z,1009.6
2023-03-04T07:40:05.651Z,1009.6
2023-03-04T07:41:09.857Z,1009.6
2023-03-04T07:42:12.811Z,1009.6
2023-03-04T07:43:15.247Z,1009.6
2023-03-04T07:44:18.687Z,1009.6
2023-03-04T07:45:22.420Z,1009.6
2023-03-04T07:46:26.435Z,1009.6
2023-03-04T07:47:29.535Z,1009.6
2023-03-04T07:48:32.631Z,1009.6
2023-03-04T07:49:35.984Z,1009.6
2023-03-04T07:50:39.271Z,1009.6
2023-03-04T07:51:42.662Z,1009.7
2023-03-04T07:52:46.416Z,1009.6
2023-03-04T07:53:49.209Z,1009.7
2023-03-04T07:54:52.950Z,1009.7
2023-03-04T07:55:56.301Z,1009.6
2023-03-04T07:57:00.223Z,1009.7
2023-03-04T07:58:03.635Z,1009.7
2023-03-04T07:59:07.191Z,1009.7
2023-03-04T08:00:10.931Z,1009.7
2023-03-04T08:01:14.680Z,1009.6
2023-03-04T08:02:17.983Z,1009.7
2023-03-04T08:03:21.369Z,1009.7
2023-03-04T08:04:24.468Z,1009.7
2023-03-04T08:05:27.403Z,1009.8
2023-03-04T08:06:30.284Z,1009.7
2023-03-04T08:07:33.626Z,1009.8
2023-03-04T08:08:36.468Z,1009.8
2023-03-04T08:09:39.176Z,1009.7
2023-03-04T08:10:41.910Z,1009.8
2023-03-04T08:11:44.741Z,1009.8
2023-03-04T08:12:48.560Z,1009.8
2023-03-04T08:13:51.880Z,1009.8
2023-03-04T08:14:55.298Z,1009.8
2023-03-04T08:15:58.193Z,1009.8
2023-03-04T08:17:02.183Z,1009.9
2023-03-04T08:18:04.970Z,1009.9
2023-03-04T08:19:07.772Z,1009.8
2023-03-04T08:20:11.528Z,1009.9
2023-03-04T08:21:14.828Z,1009.9
2023-03-04T08:22:18.523Z,1009.8
2023-03-04T08:23:21.899Z,1009.8
2023-03-04T08:24:25.141Z,1009.8
2023-03-04T08:25:28.467Z,1009.8
2023-03-04T08:26:31.624Z,1009.9
2023-03-04T08:27:34.335Z,1009.9
2023-03-04T08:28:38.471Z,1009.9
2023-03-04T08:29:41.303Z,1009.9
2023-03-04T08:30:44.543Z,1009.9
2023-03-04T08:31:49.547Z,1009.8
2023-03-04T08:32:53.356Z,1009.9
2023-03-04T08:33:56.932Z,1010
2023-03-04T08:35:00.650Z,1009.9
2023-03-04T08:36:04.012Z,1009.8
2023-03-04T08:37:06.868Z,1009.9
2023-03-04T08:38:09.941Z,1009.8
2023-03-04T08:39:12.954Z,1009.9
2023-03-04T08:40:15.858Z,1009.9
2023-03-04T08:41:18.852Z,1009.9
2023-03-04T08:42:21.916Z,1009.9
2023-03-04T08:43:25.048Z,1009.9
2023-03-04T08:44:28.968Z,1009.9
2023-03-04T08:45:32.177Z,1009.9
2023-03-04T08:46:35.692Z,1010
2023-03-04T08:47:38.762Z,1009.9
2023-03-04T08:48:41.883Z,1009.9
2023-03-04T08:49:44.977Z,1010
2023-03-04T08:50:47.634Z,1009.9
2023-03-04T08:51:50.448Z,1009.9
2023-03-04T08:52:54.110Z,1009.9
2023-03-04T08:53:57.260Z,1009.9
2023-03-04T08:55:00.158Z,1009.9
2023-03-04T08:56:03.684Z,1009.9
2023-03-04T08:57:06.830Z,1009.9
2023-03-04T08:58:09.308Z,1009.9
2023-03-04T08:59:12.398Z,1010
2023-03-04T09:00:16.583Z,1010
2023-03-04T09:01:19.941Z,1009.9
2023-03-04T09:02:22.971Z,1009.9
2023-03-04T09:03:26.421Z,1009.9
2023-03-04T09:04:30.453Z,1009.9
2023-03-04T09:05:33.792Z,1009.9
2023-03-04T09:06:36.678Z,1010
2023-03-04T09:07:40.037Z,1009.9
2023-03-04T09:08:43.185Z,1009.9
2023-03-04T09:09:46.291Z,1009.9
2023-03-04T09:10:49.636Z,1009.9
2023-03-04T09:11:52.255Z,1009.9
2023-03-04T09:12:56.003Z,1010
2023-03-04T09:13:58.839Z,1010
2023-03-04T09:15:12.161Z,1010
2023-03-04T09:16:16.431Z,1010
2023-03-04T09:17:20.451Z,1010.1
2023-03-04T09:18:23.233Z,1010
2023-03-04T09:19:25.952Z,1010.1
2023-03-04T09:20:29.029Z,1010
2023-03-04T09:21:31.972Z,1010.1
2023-03-04T09:22:36.029Z,1010
2023-03-04T09:23:39.440Z,1010
2023-03-04T09:24:42.162Z,1010
2023-03-04T09:25:44.904Z,1010
2023-03-04T09:26:47.970Z,1010
2023-03-04T09:27:51.131Z,1010
2023-03-04T09:28:54.907Z,1010
2023-03-04T09:29:58.667Z,1009.9
2023-03-04T09:31:01.948Z,1010
2023-03-04T09:32:06.342Z,1010
2023-03-04T09:33:10.382Z,1010
2023-03-04T09:34:13.252Z,1010
2023-03-04T09:35:16.243Z,1010
2023-03-04T09:36:19.616Z,1010
2023-03-04T09:37:23.308Z,1010
2023-03-04T09:38:26.398Z,1010
2023-03-04T09:39:29.104Z,1010
2023-03-04T09:40:32.766Z,1010.1
2023-03-04T09:41:35.782Z,1010.1
2023-03-04T09:42:39.782Z,1010.1
2023-03-04T09:43:43.582Z,1010.2
2023-03-04T09:44:46.624Z,1010.1
2023-03-04T09:45:50.070Z,1010
2023-03-04T09:46:53.354Z,1010
2023-03-04T09:47:57.461Z,1010
2023-03-04T09:49:01.054Z,1010.1
2023-03-04T09:50:04.286Z,1010
2023-03-04T09:51:07.661Z,1010.1
2023-03-04T09:52:11.323Z,1010.2
2023-03-04T09:53:14.426Z,1010.1
2023-03-04T09:54:17.496Z,1010.1
2023-03-04T09:55:20.509Z,1010.1
2023-03-04T09:56:24.336Z,1010.2
2023-03-04T09:57:28.120Z,1010.1
2023-03-04T09:58:31.588Z,1010.2
2023-03-04T09:59:34.737Z,1010.1
2023-03-04T10:00:37.967Z,1010.1
2023-03-04T10:01:40.758Z,1010
2023-03-04T10:02:43.033Z,1010.1
2023-03-04T10:03:46.994Z,1010
2023-03-04T10:04:50.855Z,1009.9
2023-03-04T10:05:54.083Z,1010.1
2023-03-04T10:06:57.548Z,1010
2023-03-04T10:08:00.922Z,1010.1
2023-03-04T10:09:04.086Z,1010
2023-03-04T10:10:06.872Z,1010
2023-03-04T10:11:10.511Z,1010
2023-03-04T10:12:13.116Z,1010
2023-03-04T10:13:16.628Z,1010
2023-03-04T10:14:19.991Z,1010
2023-03-04T10:15:23.463Z,1010.1
2023-03-04T10:16:26.986Z,1010
2023-03-04T10:17:29.961Z,1010
2023-03-04T10:18:32.477Z,1010.1
2023-03-04T10:19:36.586Z,1010.1
2023-03-04T10:20:39.668Z,1010.1
2023-03-04T10:21:43.024Z,1010.2
2023-03-04T10:22:46.776Z,1010.2
2023-03-04T10:23:50.140Z,1010.1
2023-03-04T10:24:52.941Z,1010.2
2023-03-04T10:25:56.366Z,1010.1
2023-03-04T10:26:59.433Z,1010.1
2023-03-04T10:28:03.213Z,1010.1
2023-03-04T10:29:06.155Z,1010.1
2023-03-04T10:30:08.718Z,1010.1
2023-03-04T10:31:11.322Z,1010
2023-03-04T10:32:14.761Z,1010.1
2023-03-04T10:33:18.277Z,1010.1
2023-03-04T10:34:21.907Z,1010.1
2023-03-04T10:35:25.801Z,1010.1
2023-03-04T10:36:30.101Z,1010.1
2023-03-04T10:37:33.976Z,1010.2
2023-03-04T10:38:36.766Z,1010.2
2023-03-04T10:39:39.786Z,1010.2
2023-03-04T10:40:46.109Z,1010.1
2023-03-04T10:41:49.369Z,1010.1
2023-03-04T10:42:53.444Z,1010.3
2023-03-04T10:43:56.156Z,1010.2
2023-03-04T10:44:59.170Z,1010.2
2023-03-04T10:46:03.102Z,1010.1
2023-03-04T10:47:06.691Z,1010.2
2023-03-04T10:48:09.816Z,1010.2
2023-03-04T10:49:13.899Z,1010.2
2023-03-04T10:50:17.359Z,1010.2
2023-03-04T10:51:21.474Z,1010.2
2023-03-04T10:52:24.592Z,1010.2
2023-03-04T10:53:27.686Z,1010.2
2023-03-04T10:54:31.439Z,1010.3
2023-03-04T10:55:34.426Z,1010.2
2023-03-04T10:56:38.521Z,1010.2
2023-03-04T10:57:42.142Z,1010.2
2023-03-04T10:58:44.927Z,1010.2
2023-03-04T10:59:48.441Z,1010.1
2023-03-04T11:00:51.304Z,1010.2
2023-03-04T11:01:54.144Z,1010.1
2023-03-04T11:02:57.186Z,1010.2
2023-03-04T11:04:00.261Z,1010.1
2023-03-04T11:05:04.396Z,1010.1
2023-03-04T11:06:07.764Z,1010.1
2023-03-04T11:07:11.667Z,1010.1
2023-03-04T11:08:14.474Z,1010.1
2023-03-04T11:09:18.469Z,1010.2
2023-03-04T11:10:21.247Z,1010.2
2023-03-04T11:11:25.004Z,1010.2
2023-03-04T11:12:28.392Z,1010.3
2023-03-04T11:13:30.907Z,1010.2
2023-03-04T11:14:33.448Z,1010.2
2023-03-04T11:15:35.914Z,1010.2
2023-03-04T11:16:39.791Z,1010.2
2023-03-04T11:17:43.537Z,1010.2
2023-03-04T11:18:46.643Z,1010.3
2023-03-04T11:19:49.087Z,1010.2
2023-03-04T11:20:52.455Z,1010.2
2023-03-04T11:21:55.529Z,1010.2
2023-03-04T11:22:59.104Z,1010.2
2023-03-04T11:24:02.498Z,1010.2
2023-03-04T11:25:05.642Z,1010.3
2023-03-04T11:26:07.809Z,1010.2
2023-03-04T11:27:11.422Z,1010.3
2023-03-04T11:28:14.823Z,1010.2
2023-03-04T11:29:17.807Z,1010.2
2023-03-04T11:30:21.177Z,1010.2
2023-03-04T11:31:24.774Z,1010.2
2023-03-04T11:32:28.390Z,1010.2
2023-03-04T11:33:31.584Z,1010.3
2023-03-04T11:34:34.420Z,1010.2
2023-03-04T11:35:38.142Z,1010.3
2023-03-04T11:36:42.074Z,1010.2
2023-03-04T11:37:44.796Z,1010.2
2023-03-04T11:38:48.627Z,1010.2
2023-03-04T11:39:52.107Z,1010.2
2023-03-04T11:40:55.497Z,1010.1
2023-03-04T11:41:58.487Z,1010.2
2023-03-04T11:43:01.638Z,1010.2
2023-03-04T11:44:04.621Z,1010.2
2023-03-04T11:45:29.051Z,1010.1
2023-03-04T11:46:36.633Z,1010.2
2023-03-04T11:47:41.082Z,1010.1
2023-03-04T11:48:44.135Z,1010.1
2023-03-04T11:49:46.581Z,1010.1
2023-03-04T11:50:49.376Z,1010.1
2023-03-04T11:51:52.103Z,1010.2
2023-03-04T11:52:54.823Z,1010.1
2023-03-04T11:53:59.005Z,1010.1
2023-03-04T11:55:02.498Z,1010.1
2023-03-04T11:56:05.503Z,1010.1
2023-03-04T11:57:08.123Z,1010.1
2023-03-04T11:58:14.091Z,1010.2
2023-03-04T11:59:16.889Z,1010.1
2023-03-04T12:00:20.229Z,1010.2
2023-03-04T12:01:23.184Z,1010.1
2023-03-04T12:02:27.017Z,1010.2
2023-03-04T12:03:30.700Z,1010.2
2023-03-04T12:04:34.053Z,1010.2
2023-03-04T12:05:37.801Z,1010.2
2023-03-04T12:06:41.024Z,1010.2
2023-03-04T12:07:44.316Z,1010.1
2023-03-04T12:08:47.119Z,1010.1
2023-03-04T12:09:50.670Z,1010.2
2023-03-04T12:10:53.881Z,1010.1
2023-03-04T12:11:56.666Z,1010.2
2023-03-04T12:12:58.912Z,1010.1
2023-03-04T12:14:02.108Z,1010.1
2023-03-04T12:15:05.780Z,1010.1
2023-03-04T12:16:08.901Z,1010.1
2023-03-04T12:17:12.272Z,1010.1
2023-03-04T12:18:16.117Z,1010.1
2023-03-04T12:19:20.407Z,1010
2023-03-04T12:20:23.451Z,1010.1
2023-03-04T12:21:27.176Z,1010.1
2023-03-04T12:22:30.090Z,1010.1
2023-03-04T12:23:33.177Z,1010.1
2023-03-04T12:24:36.066Z,1010
2023-03-04T12:25:39.951Z,1010
2023-03-04T12:26:43.453Z,1010
2023-03-04T12:27:46.405Z,1010
2023-03-04T12:28:48.959Z,1010
2023-03-04T12:29:51.745Z,1009.9
2023-03-04T12:30:54.806Z,1010
2023-03-04T12:31:58.599Z,1010
2023-03-04T12:33:02.210Z,1009.9
2023-03-04T12:34:05.753Z,1010
2023-03-04T12:35:08.559Z,1010
2023-03-04T12:36:11.688Z,1009.9
2023-03-04T12:37:14.495Z,1009.9
2023-03-04T12:38:20.093Z,1009.9
2023-03-04T12:39:23.545Z,1009.9
2023-03-04T12:40:26.979Z,1009.9
2023-03-04T12:41:31.312Z,1009.9
2023-03-04T12:42:35.013Z,1009.9
2023-03-04T12:43:38.006Z,1009.9
2023-03-04T12:44:40.841Z,1009.8
2023-03-04T12:45:44.573Z,1009.8
2023-03-04T12:46:47.516Z,1009.9
2023-03-04T12:47:50.696Z,1009.9
2023-03-04T12:48:54.035Z,1009.8
2023-03-04T12:49:57.821Z,1009.9
2023-03-04T12:51:00.887Z,1009.8
2023-03-04T12:52:04.679Z,1009.8
2023-03-04T12:53:07.851Z,1009.8
2023-03-04T12:54:10.575Z,1009.8
2023-03-04T12:55:13.987Z,1009.9
2023-03-04T12:56:17.725Z,1009.8
2023-03-04T12:57:21.309Z,1009.9
2023-03-04T12:58:24.794Z,1009.8
2023-03-04T12:59:28.178Z,1009.8
2023-03-04T13:00:30.894Z,1009.8
2023-03-04T13:01:34.178Z,1009.8
2023-03-04T13:02:37.186Z,1009.8
2023-03-04T13:03:40.677Z,1009.8
2023-03-04T13:04:44.512Z,1009.7
2023-03-04T13:05:47.527Z,1009.8
2023-03-04T13:06:49.960Z,1009.8
2023-03-04T13:07:54.330Z,1009.7
2023-03-04T13:08:58.253Z,1009.7
2023-03-04T13:10:01.025Z,1009.7
2023-03-04T13:11:04.416Z,1009.7
2023-03-04T13:12:07.139Z,1009.8
2023-03-04T13:13:11.256Z,1009.7
2023-03-04T13:14:14.745Z,1009.7
2023-03-04T13:15:18.152Z,1009.6
2023-03-04T13:16:21.404Z,1009.7